Time;durP1;ratioP1;P1;durP2;ratioP2;P2;SDS_P1;SDS_P2;PMS_P1;PMS_P2;Temp;Humidity;BMP_temperature;BMP_pressure;BME280_temperature;BME280_humidity;BME280_pressure;Samples;Min_cycle;Max_cycle;Signal;HPM_P1;HPM_P2
2020/10/06 00:00:52;;;;;;;1.75;1.5;;;;;;;9.96;84.5625;94631.11;;;;
2020/10/06 00:01:52;;;;;;;1.75;1.5;;;;;;;9.96;84.5625;94631.11;;;;
2020/10/06 00:02:53;;;;;;;1.75;1.5;;;;;;;9.96;84.5625;94631.11;;;;
2020/10/06 00:03:53;;;;;;;1.75;1.5;;;;;;;9.96;84.5625;94631.11;;;;
2020/10/06 00:04:54;;;;;;;1.9;1.45;;;;;;;10.05;84.74023;94617.07;;;;
2020/10/06 00:05:54;;;;;;;1.9;1.45;;;;;;;10.05;84.74023;94617.07;;;;
2020/10/06 00:06:55;;;;;;;1.9;1.45;;;;;;;10.05;84.74023;94617.07;;;;
2020/10/06 00:07:55;;;;;;;1.9;1.45;;;;;;;10.05;84.74023;94617.07;;;;
2020/10/06 00:08:56;;;;;;;1.9;1.45;;;;;;;10.05;84.74023;94617.07;;;;
2020/10/06 00:09:56;;;;;;;1.9;1.45;;;;;;;10.05;84.74023;94617.07;;;;
2020/10/06 00:10:57;;;;;;;1.9;1.45;;;;;;;10.05;84.74023;94617.07;;;;
2020/10/06 00:11:58;;;;;;;1.9;1.45;;;;;;;10.05;84.74023;94617.07;;;;
2020/10/06 00:12:58;;;;;;;1.9;1.45;;;;;;;10.05;84.74023;94617.07;;;;
2020/10/06 00:13:59;;;;;;;1.9;1.45;;;;;;;10.05;84.74023;94617.07;;;;
2020/10/06 00:14:59;;;;;;;1.9;1.45;;;;;;;10.05;84.74023;94617.07;;;;
2020/10/06 00:16:00;;;;;;;2.5;1.6;;;;;;;9.96;84.98828;94611.81;;;;
2020/10/06 00:17:00;;;;;;;2.5;1.6;;;;;;;9.96;84.98828;94611.81;;;;
2020/10/06 00:18:01;;;;;;;2.5;1.6;;;;;;;9.96;84.98828;94611.81;;;;
2020/10/06 00:19:01;;;;;;;2.5;1.6;;;;;;;9.96;84.98828;94611.81;;;;
2020/10/06 00:20:02;;;;;;;2.5;1.6;;;;;;;9.96;84.98828;94611.81;;;;
2020/10/06 00:21:04;;;;;;;2.5;1.6;;;;;;;9.96;84.98828;94611.81;;;;
2020/10/06 00:22:05;;;;;;;2.5;1.6;;;;;;;9.96;84.98828;94611.81;;;;
2020/10/06 00:23:05;;;;;;;2.5;1.6;;;;;;;9.96;84.98828;94611.81;;;;
2020/10/06 00:24:06;;;;;;;2.5;1.6;;;;;;;9.96;84.98828;94611.81;;;;
2020/10/06 00:25:06;;;;;;;2.5;1.6;;;;;;;9.96;84.98828;94611.81;;;;
2020/10/06 00:26:07;;;;;;;1.6;1.5;;;;;;;9.83;85.60156;94613.92;;;;
2020/10/06 00:27:08;;;;;;;1.6;1.5;;;;;;;9.83;85.60156;94613.92;;;;
2020/10/06 00:28:09;;;;;;;1.6;1.5;;;;;;;9.83;85.60156;94613.92;;;;
2020/10/06 00:29:09;;;;;;;1.6;1.5;;;;;;;9.83;85.60156;94613.92;;;;
2020/10/06 00:30:10;;;;;;;1.6;1.5;;;;;;;9.83;85.60156;94613.92;;;;
2020/10/06 00:31:10;;;;;;;1.6;1.5;;;;;;;9.83;85.60156;94613.92;;;;
2020/10/06 00:32:11;;;;;;;1.6;1.5;;;;;;;9.83;85.60156;94613.92;;;;
2020/10/06 00:33:12;;;;;;;1.6;1.5;;;;;;;9.83;85.60156;94613.92;;;;
2020/10/06 00:34:12;;;;;;;1.6;1.5;;;;;;;9.83;85.60156;94613.92;;;;
2020/10/06 00:35:12;;;;;;;1.6;1.5;;;;;;;9.83;85.60156;94613.92;;;;
2020/10/06 00:36:13;;;;;;;1.6;1.5;;;;;;;9.83;85.60156;94613.92;;;;
2020/10/06 00:37:13;;;;;;;2.9;1.6;;;;;;;9.79;86.08594;94625.32;;;;
2020/10/06 00:38:14;;;;;;;2.9;1.6;;;;;;;9.79;86.08594;94625.32;;;;
2020/10/06 00:39:14;;;;;;;2.9;1.6;;;;;;;9.79;86.08594;94625.32;;;;
2020/10/06 00:40:15;;;;;;;2.9;1.6;;;;;;;9.79;86.08594;94625.32;;;;
2020/10/06 00:41:15;;;;;;;2.9;1.6;;;;;;;9.79;86.08594;94625.32;;;;
2020/10/06 00:42:16;;;;;;;2.9;1.6;;;;;;;9.79;86.08594;94625.32;;;;
2020/10/06 00:43:16;;;;;;;2.9;1.6;;;;;;;9.79;86.08594;94625.32;;;;
2020/10/06 00:44:17;;;;;;;2.9;1.6;;;;;;;9.79;86.08594;94625.32;;;;
2020/10/06 00:45:17;;;;;;;2.9;1.6;;;;;;;9.79;86.08594;94625.32;;;;
2020/10/06 00:46:18;;;;;;;2.9;1.6;;;;;;;9.79;86.08594;94625.32;;;;
2020/10/06 00:47:18;;;;;;;1.8;1.7;;;;;;;9.91;86.61914;94633.33;;;;
2020/10/06 00:48:20;;;;;;;1.8;1.7;;;;;;;9.91;86.61914;94633.33;;;;
2020/10/06 00:49:20;;;;;;;1.8;1.7;;;;;;;9.91;86.61914;94633.33;;;;
2020/10/06 00:50:21;;;;;;;1.8;1.7;;;;;;;9.91;86.61914;94633.33;;;;
2020/10/06 00:51:21;;;;;;;1.8;1.7;;;;;;;9.91;86.61914;94633.33;;;;
2020/10/06 00:52:23;;;;;;;1.8;1.7;;;;;;;9.91;86.61914;94633.33;;;;
2020/10/06 00:53:23;;;;;;;1.8;1.7;;;;;;;9.91;86.61914;94633.33;;;;
2020/10/06 00:54:24;;;;;;;1.8;1.7;;;;;;;9.91;86.61914;94633.33;;;;
2020/10/06 00:55:24;;;;;;;1.8;1.7;;;;;;;9.91;86.61914;94633.33;;;;
2020/10/06 00:56:25;;;;;;;1.8;1.7;;;;;;;9.91;86.61914;94633.33;;;;
2020/10/06 00:57:26;;;;;;;1.8;1.7;;;;;;;9.91;86.61914;94633.33;;;;
2020/10/06 00:58:26;;;;;;;2.1;1.6;;;;;;;9.96;86.78809;94647.81;;;;
2020/10/06 00:59:27;;;;;;;2.1;1.6;;;;;;;9.96;86.78809;94647.81;;;;
2020/10/06 01:00:27;;;;;;;2.1;1.6;;;;;;;9.96;86.78809;94647.81;;;;
2020/10/06 01:01:28;;;;;;;2.1;1.6;;;;;;;9.96;86.78809;94647.81;;;;
2020/10/06 01:02:28;;;;;;;2.1;1.6;;;;;;;9.96;86.78809;94647.81;;;;
2020/10/06 01:03:28;;;;;;;2.1;1.6;;;;;;;9.96;86.78809;94647.81;;;;
2020/10/06 01:04:29;;;;;;;2.1;1.6;;;;;;;9.96;86.78809;94647.81;;;;
2020/10/06 01:05:30;;;;;;;2.1;1.6;;;;;;;9.96;86.78809;94647.81;;;;
2020/10/06 01:06:30;;;;;;;2.1;1.6;;;;;;;9.96;86.78809;94647.81;;;;
2020/10/06 01:07:31;;;;;;;2.1;1.6;;;;;;;9.96;86.78809;94647.81;;;;
2020/10/06 01:08:31;;;;;;;2.65;1.7;;;;;;;10.03;87.19727;94644.81;;;;
2020/10/06 01:09:32;;;;;;;2.65;1.7;;;;;;;10.03;87.19727;94644.81;;;;
2020/10/06 01:10:32;;;;;;;2.65;1.7;;;;;;;10.03;87.19727;94644.81;;;;
2020/10/06 01:11:33;;;;;;;2.65;1.7;;;;;;;10.03;87.19727;94644.81;;;;
2020/10/06 01:12:34;;;;;;;2.65;1.7;;;;;;;10.03;87.19727;94644.81;;;;
2020/10/06 01:13:34;;;;;;;2.65;1.7;;;;;;;10.03;87.19727;94644.81;;;;
2020/10/06 01:14:35;;;;;;;2.65;1.7;;;;;;;10.03;87.19727;94644.81;;;;
2020/10/06 01:15:35;;;;;;;2.65;1.7;;;;;;;10.03;87.19727;94644.81;;;;
2020/10/06 01:16:36;;;;;;;2.65;1.7;;;;;;;10.03;87.19727;94644.81;;;;
2020/10/06 01:17:36;;;;;;;2.65;1.7;;;;;;;10.03;87.19727;94644.81;;;;
2020/10/06 01:18:37;;;;;;;2.65;1.7;;;;;;;10.03;87.19727;94644.81;;;;
2020/10/06 01:19:37;;;;;;;1.8;1.7;;;;;;;10.03;87.53809;94640.36;;;;
2020/10/06 01:20:38;;;;;;;1.8;1.7;;;;;;;10.03;87.53809;94640.36;;;;
2020/10/06 01:21:38;;;;;;;1.8;1.7;;;;;;;10.03;87.53809;94640.36;;;;
2020/10/06 01:22:39;;;;;;;1.8;1.7;;;;;;;10.03;87.53809;94640.36;;;;
2020/10/06 01:23:39;;;;;;;1.8;1.7;;;;;;;10.03;87.53809;94640.36;;;;
2020/10/06 01:24:40;;;;;;;1.8;1.7;;;;;;;10.03;87.53809;94640.36;;;;
2020/10/06 01:25:40;;;;;;;1.8;1.7;;;;;;;10.03;87.53809;94640.36;;;;
2020/10/06 01:26:42;;;;;;;1.8;1.7;;;;;;;10.03;87.53809;94640.36;;;;
2020/10/06 01:27:42;;;;;;;1.8;1.7;;;;;;;10.03;87.53809;94640.36;;;;
2020/10/06 01:28:43;;;;;;;1.8;1.7;;;;;;;10.03;87.53809;94640.36;;;;
2020/10/06 01:29:43;;;;;;;1.8;1.7;;;;;;;10.03;87.53809;94640.36;;;;
2020/10/06 01:30:44;;;;;;;1.9;1.7;;;;;;;10.08;88.12207;94642.19;;;;
2020/10/06 01:31:44;;;;;;;1.9;1.7;;;;;;;10.08;88.12207;94642.19;;;;
2020/10/06 01:32:45;;;;;;;1.9;1.7;;;;;;;10.08;88.12207;94642.19;;;;
2020/10/06 01:33:45;;;;;;;1.9;1.7;;;;;;;10.08;88.12207;94642.19;;;;
2020/10/06 01:34:46;;;;;;;1.9;1.7;;;;;;;10.08;88.12207;94642.19;;;;
2020/10/06 01:36:18;;;;;;;1.9;1.7;;;;;;;10.08;88.12207;94642.19;;;;
2020/10/06 01:37:19;;;;;;;1.9;1.7;;;;;;;10.08;88.12207;94642.19;;;;
2020/10/06 01:38:19;;;;;;;1.9;1.7;;;;;;;10.08;88.12207;94642.19;;;;
2020/10/06 01:39:20;;;;;;;1.9;1.7;;;;;;;10.08;88.12207;94642.19;;;;
2020/10/06 01:40:20;;;;;;;1.9;1.7;;;;;;;10.08;88.12207;94642.19;;;;
2020/10/06 01:41:21;;;;;;;2.15;1.8;;;;;;;10.04;88.24219;94641.46;;;;
2020/10/06 01:42:22;;;;;;;2.15;1.8;;;;;;;10.04;88.24219;94641.46;;;;
2020/10/06 01:43:22;;;;;;;2.15;1.8;;;;;;;10.04;88.24219;94641.46;;;;
2020/10/06 01:44:22;;;;;;;2.15;1.8;;;;;;;10.04;88.24219;94641.46;;;;
2020/10/06 01:45:23;;;;;;;2.15;1.8;;;;;;;10.04;88.24219;94641.46;;;;
2020/10/06 01:46:24;;;;;;;2.15;1.8;;;;;;;10.04;88.24219;94641.46;;;;
2020/10/06 01:47:24;;;;;;;2.15;1.8;;;;;;;10.04;88.24219;94641.46;;;;
2020/10/06 01:48:25;;;;;;;2.15;1.8;;;;;;;10.04;88.24219;94641.46;;;;
2020/10/06 01:49:25;;;;;;;2.15;1.8;;;;;;;10.04;88.24219;94641.46;;;;
2020/10/06 01:50:26;;;;;;;2.15;1.8;;;;;;;10.04;88.24219;94641.46;;;;
2020/10/06 01:51:26;;;;;;;1.9;1.6;;;;;;;10.06;88.74414;94635.82;;;;
2020/10/06 01:52:27;;;;;;;1.9;1.6;;;;;;;10.06;88.74414;94635.82;;;;
2020/10/06 01:53:28;;;;;;;1.9;1.6;;;;;;;10.06;88.74414;94635.82;;;;
2020/10/06 01:54:28;;;;;;;1.9;1.6;;;;;;;10.06;88.74414;94635.82;;;;
2020/10/06 01:55:29;;;;;;;1.9;1.6;;;;;;;10.06;88.74414;94635.82;;;;
2020/10/06 01:56:29;;;;;;;1.9;1.6;;;;;;;10.06;88.74414;94635.82;;;;
2020/10/06 01:57:30;;;;;;;1.9;1.6;;;;;;;10.06;88.74414;94635.82;;;;
2020/10/06 01:58:30;;;;;;;1.9;1.6;;;;;;;10.06;88.74414;94635.82;;;;
2020/10/06 01:59:31;;;;;;;1.9;1.6;;;;;;;10.06;88.74414;94635.82;;;;
2020/10/06 02:00:32;;;;;;;1.9;1.6;;;;;;;10.06;88.74414;94635.82;;;;
2020/10/06 02:01:32;;;;;;;1.9;1.6;;;;;;;10.06;88.74414;94635.82;;;;
2020/10/06 02:02:33;;;;;;;2.7;1.7;;;;;;;9.98;89.47363;94640.3;;;;
2020/10/06 02:03:33;;;;;;;2.7;1.7;;;;;;;9.98;89.47363;94640.3;;;;
2020/10/06 02:04:34;;;;;;;2.7;1.7;;;;;;;9.98;89.47363;94640.3;;;;
2020/10/06 02:05:34;;;;;;;2.7;1.7;;;;;;;9.98;89.47363;94640.3;;;;
2020/10/06 02:06:35;;;;;;;2.7;1.7;;;;;;;9.98;89.47363;94640.3;;;;
2020/10/06 02:07:35;;;;;;;2.7;1.7;;;;;;;9.98;89.47363;94640.3;;;;
2020/10/06 02:08:37;;;;;;;2.7;1.7;;;;;;;9.98;89.47363;94640.3;;;;
2020/10/06 02:09:37;;;;;;;2.7;1.7;;;;;;;9.98;89.47363;94640.3;;;;
2020/10/06 02:10:38;;;;;;;2.7;1.7;;;;;;;9.98;89.47363;94640.3;;;;
2020/10/06 02:11:38;;;;;;;2.7;1.7;;;;;;;9.98;89.47363;94640.3;;;;
2020/10/06 02:12:39;;;;;;;1.95;1.5;;;;;;;9.99;90.28418;94633.82;;;;
2020/10/06 02:13:39;;;;;;;1.95;1.5;;;;;;;9.99;90.28418;94633.82;;;;
2020/10/06 02:14:40;;;;;;;1.95;1.5;;;;;;;9.99;90.28418;94633.82;;;;
2020/10/06 02:15:40;;;;;;;1.95;1.5;;;;;;;9.99;90.28418;94633.82;;;;
2020/10/06 02:16:41;;;;;;;1.95;1.5;;;;;;;9.99;90.28418;94633.82;;;;
2020/10/06 02:17:42;;;;;;;1.95;1.5;;;;;;;9.99;90.28418;94633.82;;;;
2020/10/06 02:18:42;;;;;;;1.95;1.5;;;;;;;9.99;90.28418;94633.82;;;;
2020/10/06 02:19:43;;;;;;;1.95;1.5;;;;;;;9.99;90.28418;94633.82;;;;
2020/10/06 02:20:43;;;;;;;1.95;1.5;;;;;;;9.99;90.28418;94633.82;;;;
2020/10/06 02:21:44;;;;;;;1.95;1.5;;;;;;;9.99;90.28418;94633.82;;;;
2020/10/06 02:22:44;;;;;;;1.95;1.5;;;;;;;9.99;90.28418;94633.82;;;;
2020/10/06 02:23:45;;;;;;;1.65;1.3;;;;;;;9.92;90.61035;94634.42;;;;
2020/10/06 02:24:45;;;;;;;1.65;1.3;;;;;;;9.92;90.61035;94634.42;;;;
2020/10/06 02:25:46;;;;;;;1.65;1.3;;;;;;;9.92;90.61035;94634.42;;;;
2020/10/06 02:26:47;;;;;;;1.65;1.3;;;;;;;9.92;90.61035;94634.42;;;;
2020/10/06 02:27:47;;;;;;;1.65;1.3;;;;;;;9.92;90.61035;94634.42;;;;
2020/10/06 02:28:48;;;;;;;1.65;1.3;;;;;;;9.92;90.61035;94634.42;;;;
2020/10/06 02:29:48;;;;;;;1.65;1.3;;;;;;;9.92;90.61035;94634.42;;;;
2020/10/06 02:30:53;;;;;;;1.65;1.3;;;;;;;9.92;90.61035;94634.42;;;;
2020/10/06 02:31:53;;;;;;;1.65;1.3;;;;;;;9.92;90.61035;94634.42;;;;
2020/10/06 02:32:54;;;;;;;1.65;1.3;;;;;;;9.92;90.61035;94634.42;;;;
2020/10/06 02:33:54;;;;;;;1.4;1.3;;;;;;;9.92;91.74805;94627.79;;;;
2020/10/06 02:34:55;;;;;;;1.4;1.3;;;;;;;9.92;91.74805;94627.79;;;;
2020/10/06 02:35:56;;;;;;;1.4;1.3;;;;;;;9.92;91.74805;94627.79;;;;
2020/10/06 02:36:56;;;;;;;1.4;1.3;;;;;;;9.92;91.74805;94627.79;;;;
2020/10/06 02:37:57;;;;;;;1.4;1.3;;;;;;;9.92;91.74805;94627.79;;;;
2020/10/06 02:38:58;;;;;;;1.4;1.3;;;;;;;9.92;91.74805;94627.79;;;;
2020/10/06 02:39:59;;;;;;;1.4;1.3;;;;;;;9.92;91.74805;94627.79;;;;
2020/10/06 02:41:00;;;;;;;1.4;1.3;;;;;;;9.92;91.74805;94627.79;;;;
2020/10/06 02:42:00;;;;;;;1.4;1.3;;;;;;;9.92;91.74805;94627.79;;;;
2020/10/06 02:43:01;;;;;;;1.4;1.3;;;;;;;9.92;91.74805;94627.79;;;;
2020/10/06 02:44:01;;;;;;;1.4;1.3;;;;;;;9.92;91.74805;94627.79;;;;
2020/10/06 02:45:02;;;;;;;2.05;1.6;;;;;;;9.86;91.83984;94613;;;;
2020/10/06 02:46:02;;;;;;;2.05;1.6;;;;;;;9.86;91.83984;94613;;;;
2020/10/06 02:47:03;;;;;;;2.05;1.6;;;;;;;9.86;91.83984;94613;;;;
2020/10/06 02:48:03;;;;;;;2.05;1.6;;;;;;;9.86;91.83984;94613;;;;
2020/10/06 02:49:03;;;;;;;2.05;1.6;;;;;;;9.86;91.83984;94613;;;;
2020/10/06 02:50:04;;;;;;;2.05;1.6;;;;;;;9.86;91.83984;94613;;;;
2020/10/06 02:51:05;;;;;;;2.05;1.6;;;;;;;9.86;91.83984;94613;;;;
2020/10/06 02:52:06;;;;;;;2.05;1.6;;;;;;;9.86;91.83984;94613;;;;
2020/10/06 02:53:06;;;;;;;2.05;1.6;;;;;;;9.86;91.83984;94613;;;;
2020/10/06 02:54:07;;;;;;;2.05;1.6;;;;;;;9.86;91.83984;94613;;;;
2020/10/06 02:55:07;;;;;;;2.05;1.6;;;;;;;9.86;91.83984;94613;;;;
2020/10/06 02:56:08;;;;;;;1.4;1.3;;;;;;;9.88;92.49219;94618.55;;;;
2020/10/06 02:57:08;;;;;;;1.4;1.3;;;;;;;9.88;92.49219;94618.55;;;;
2020/10/06 02:58:09;;;;;;;1.4;1.3;;;;;;;9.88;92.49219;94618.55;;;;
2020/10/06 02:59:09;;;;;;;1.4;1.3;;;;;;;9.88;92.49219;94618.55;;;;
2020/10/06 03:00:10;;;;;;;1.4;1.3;;;;;;;9.88;92.49219;94618.55;;;;
2020/10/06 03:01:10;;;;;;;1.4;1.3;;;;;;;9.88;92.49219;94618.55;;;;
2020/10/06 03:02:11;;;;;;;1.4;1.3;;;;;;;9.88;92.49219;94618.55;;;;
2020/10/06 03:03:11;;;;;;;1.4;1.3;;;;;;;9.88;92.49219;94618.55;;;;
2020/10/06 03:04:12;;;;;;;1.4;1.3;;;;;;;9.88;92.49219;94618.55;;;;
2020/10/06 03:05:13;;;;;;;1.4;1.3;;;;;;;9.88;92.49219;94618.55;;;;
2020/10/06 03:06:13;;;;;;;1.4;1.2;;;;;;;9.85;93.2002;94605.47;;;;
2020/10/06 03:07:14;;;;;;;1.4;1.2;;;;;;;9.85;93.2002;94605.47;;;;
2020/10/06 03:08:14;;;;;;;1.4;1.2;;;;;;;9.85;93.2002;94605.47;;;;
2020/10/06 03:09:15;;;;;;;1.4;1.2;;;;;;;9.85;93.2002;94605.47;;;;
2020/10/06 03:10:15;;;;;;;1.4;1.2;;;;;;;9.85;93.2002;94605.47;;;;
2020/10/06 03:11:16;;;;;;;1.4;1.2;;;;;;;9.85;93.2002;94605.47;;;;
2020/10/06 03:12:16;;;;;;;1.4;1.2;;;;;;;9.85;93.2002;94605.47;;;;
2020/10/06 03:13:17;;;;;;;1.4;1.2;;;;;;;9.85;93.2002;94605.47;;;;
2020/10/06 03:14:17;;;;;;;1.4;1.2;;;;;;;9.85;93.2002;94605.47;;;;
2020/10/06 03:15:18;;;;;;;1.4;1.2;;;;;;;9.85;93.2002;94605.47;;;;
2020/10/06 03:16:18;;;;;;;1.4;1.2;;;;;;;9.85;93.2002;94605.47;;;;
2020/10/06 03:17:19;;;;;;;0.9;0.9;;;;;;;9.92;93.6709;94599.89;;;;
2020/10/06 03:18:19;;;;;;;0.9;0.9;;;;;;;9.92;93.6709;94599.89;;;;
2020/10/06 03:19:20;;;;;;;0.9;0.9;;;;;;;9.92;93.6709;94599.89;;;;
2020/10/06 03:20:20;;;;;;;0.9;0.9;;;;;;;9.92;93.6709;94599.89;;;;
2020/10/06 03:21:21;;;;;;;0.9;0.9;;;;;;;9.92;93.6709;94599.89;;;;
2020/10/06 03:22:22;;;;;;;0.9;0.9;;;;;;;9.92;93.6709;94599.89;;;;
2020/10/06 03:23:23;;;;;;;0.9;0.9;;;;;;;9.92;93.6709;94599.89;;;;
2020/10/06 03:24:24;;;;;;;0.9;0.9;;;;;;;9.92;93.6709;94599.89;;;;
2020/10/06 03:25:24;;;;;;;0.9;0.9;;;;;;;9.92;93.6709;94599.89;;;;
2020/10/06 03:26:25;;;;;;;0.9;0.9;;;;;;;9.92;93.6709;94599.89;;;;
2020/10/06 03:27:25;;;;;;;1.1;0.9;;;;;;;9.91;93.45605;94609.44;;;;
2020/10/06 03:28:26;;;;;;;1.1;0.9;;;;;;;9.91;93.45605;94609.44;;;;
2020/10/06 03:29:27;;;;;;;1.1;0.9;;;;;;;9.91;93.45605;94609.44;;;;
2020/10/06 03:30:27;;;;;;;1.1;0.9;;;;;;;9.91;93.45605;94609.44;;;;
2020/10/06 03:31:28;;;;;;;1.1;0.9;;;;;;;9.91;93.45605;94609.44;;;;
2020/10/06 03:32:28;;;;;;;1.1;0.9;;;;;;;9.91;93.45605;94609.44;;;;
2020/10/06 03:33:29;;;;;;;1.1;0.9;;;;;;;9.91;93.45605;94609.44;;;;
2020/10/06 03:34:29;;;;;;;1.1;0.9;;;;;;;9.91;93.45605;94609.44;;;;
2020/10/06 03:35:30;;;;;;;1.1;0.9;;;;;;;9.91;93.45605;94609.44;;;;
2020/10/06 03:36:30;;;;;;;1.1;0.9;;;;;;;9.91;93.45605;94609.44;;;;
2020/10/06 03:37:32;;;;;;;1.1;0.9;;;;;;;9.91;93.45605;94609.44;;;;
2020/10/06 03:38:33;;;;;;;0.8;0.8;;;;;;;9.97;93.38379;94621.94;;;;
2020/10/06 03:39:33;;;;;;;0.8;0.8;;;;;;;9.97;93.38379;94621.94;;;;
2020/10/06 03:40:34;;;;;;;0.8;0.8;;;;;;;9.97;93.38379;94621.94;;;;
2020/10/06 03:41:37;;;;;;;0.8;0.8;;;;;;;9.97;93.38379;94621.94;;;;
2020/10/06 03:42:41;;;;;;;0.8;0.8;;;;;;;9.97;93.38379;94621.94;;;;
2020/10/06 03:43:43;;;;;;;0.8;0.8;;;;;;;9.97;93.38379;94621.94;;;;
2020/10/06 03:44:44;;;;;;;0.8;0.8;;;;;;;9.97;93.38379;94621.94;;;;
2020/10/06 03:45:44;;;;;;;0.8;0.8;;;;;;;9.97;93.38379;94621.94;;;;
2020/10/06 03:46:45;;;;;;;0.8;0.8;;;;;;;9.97;93.38379;94621.94;;;;
2020/10/06 03:47:46;;;;;;;0.8;0.8;;;;;;;9.97;93.38379;94621.94;;;;
2020/10/06 03:48:47;;;;;;;0.8;0.8;;;;;;;9.97;93.32031;94618.83;;;;
2020/10/06 03:49:48;;;;;;;0.8;0.8;;;;;;;9.97;93.32031;94618.83;;;;
2020/10/06 03:50:48;;;;;;;0.8;0.8;;;;;;;9.97;93.32031;94618.83;;;;
2020/10/06 03:51:49;;;;;;;0.8;0.8;;;;;;;9.97;93.32031;94618.83;;;;
2020/10/06 03:52:51;;;;;;;0.8;0.8;;;;;;;9.97;93.32031;94618.83;;;;
2020/10/06 03:53:52;;;;;;;0.8;0.8;;;;;;;9.97;93.32031;94618.83;;;;
2020/10/06 03:54:52;;;;;;;0.8;0.8;;;;;;;9.97;93.32031;94618.83;;;;
2020/10/06 03:55:53;;;;;;;0.8;0.8;;;;;;;9.97;93.32031;94618.83;;;;
2020/10/06 03:56:57;;;;;;;0.8;0.8;;;;;;;9.97;93.32031;94618.83;;;;
2020/10/06 03:57:57;;;;;;;0.8;0.8;;;;;;;9.97;93.32031;94618.83;;;;
2020/10/06 03:58:58;;;;;;;0.8;0.8;;;;;;;9.97;93.32031;94618.83;;;;
2020/10/06 04:00:02;;;;;;;1.15;0.85;;;;;;;10.05;93.38086;94611.27;;;;
2020/10/06 04:01:05;;;;;;;1.15;0.85;;;;;;;10.05;93.38086;94611.27;;;;
2020/10/06 04:02:05;;;;;;;1.15;0.85;;;;;;;10.05;93.38086;94611.27;;;;
2020/10/06 04:03:06;;;;;;;1.15;0.85;;;;;;;10.05;93.38086;94611.27;;;;
2020/10/06 04:04:06;;;;;;;1.15;0.85;;;;;;;10.05;93.38086;94611.27;;;;
2020/10/06 04:05:08;;;;;;;1.15;0.85;;;;;;;10.05;93.38086;94611.27;;;;
2020/10/06 04:06:10;;;;;;;1.15;0.85;;;;;;;10.05;93.38086;94611.27;;;;
2020/10/06 04:07:10;;;;;;;1.15;0.85;;;;;;;10.05;93.38086;94611.27;;;;
2020/10/06 04:08:23;;;;;;;1.15;0.85;;;;;;;10.05;93.38086;94611.27;;;;
2020/10/06 04:09:29;;;;;;;1.15;0.85;;;;;;;10.05;93.38086;94611.27;;;;
2020/10/06 04:10:29;;;;;;;0.8;0.8;;;;;;;10.02;92.84277;94607.59;;;;
2020/10/06 04:11:30;;;;;;;0.8;0.8;;;;;;;10.02;92.84277;94607.59;;;;
2020/10/06 04:12:35;;;;;;;0.8;0.8;;;;;;;10.02;92.84277;94607.59;;;;
2020/10/06 04:13:36;;;;;;;0.8;0.8;;;;;;;10.02;92.84277;94607.59;;;;
2020/10/06 04:14:41;;;;;;;0.8;0.8;;;;;;;10.02;92.84277;94607.59;;;;
2020/10/06 04:15:41;;;;;;;0.8;0.8;;;;;;;10.02;92.84277;94607.59;;;;
2020/10/06 04:16:42;;;;;;;0.8;0.8;;;;;;;10.02;92.84277;94607.59;;;;
2020/10/06 04:17:42;;;;;;;0.8;0.8;;;;;;;10.02;92.84277;94607.59;;;;
2020/10/06 04:18:43;;;;;;;0.8;0.8;;;;;;;10.02;92.84277;94607.59;;;;
2020/10/06 04:19:47;;;;;;;0.8;0.8;;;;;;;10.02;92.84277;94607.59;;;;
2020/10/06 04:20:47;;;;;;;0.9;0.8;;;;;;;10.03;92.96191;94603.43;;;;
2020/10/06 04:21:48;;;;;;;0.9;0.8;;;;;;;10.03;92.96191;94603.43;;;;
2020/10/06 04:22:49;;;;;;;0.9;0.8;;;;;;;10.03;92.96191;94603.43;;;;
2020/10/06 04:23:49;;;;;;;0.9;0.8;;;;;;;10.03;92.96191;94603.43;;;;
2020/10/06 04:24:53;;;;;;;0.9;0.8;;;;;;;10.03;92.96191;94603.43;;;;
2020/10/06 04:25:53;;;;;;;0.9;0.8;;;;;;;10.03;92.96191;94603.43;;;;
2020/10/06 04:26:54;;;;;;;0.9;0.8;;;;;;;10.03;92.96191;94603.43;;;;
2020/10/06 04:28:00;;;;;;;0.9;0.8;;;;;;;10.03;92.96191;94603.43;;;;
2020/10/06 04:29:06;;;;;;;0.9;0.8;;;;;;;10.03;92.96191;94603.43;;;;
2020/10/06 04:30:08;;;;;;;0.9;0.8;;;;;;;10.03;92.96191;94603.43;;;;
2020/10/06 04:31:09;;;;;;;0.9;0.8;;;;;;;10.03;92.96191;94603.43;;;;
2020/10/06 04:32:11;;;;;;;1.75;0.8;;;;;;;10.03;93.13184;94611.11;;;;
2020/10/06 04:33:14;;;;;;;1.75;0.8;;;;;;;10.03;93.13184;94611.11;;;;
2020/10/06 04:34:16;;;;;;;1.75;0.8;;;;;;;10.03;93.13184;94611.11;;;;
2020/10/06 04:35:24;;;;;;;1.75;0.8;;;;;;;10.03;93.13184;94611.11;;;;
2020/10/06 04:36:28;;;;;;;1.75;0.8;;;;;;;10.03;93.13184;94611.11;;;;
2020/10/06 04:37:34;;;;;;;1.75;0.8;;;;;;;10.03;93.13184;94611.11;;;;
2020/10/06 04:38:35;;;;;;;1.75;0.8;;;;;;;10.03;93.13184;94611.11;;;;
2020/10/06 04:39:37;;;;;;;1.75;0.8;;;;;;;10.03;93.13184;94611.11;;;;
2020/10/06 04:40:38;;;;;;;1.75;0.8;;;;;;;10.03;93.13184;94611.11;;;;
2020/10/06 04:41:39;;;;;;;1.75;0.8;;;;;;;10.03;93.13184;94611.11;;;;
2020/10/06 04:42:41;;;;;;;1.7;0.9;;;;;;;10.16;92.94727;94597.68;;;;
2020/10/06 04:43:47;;;;;;;1.7;0.9;;;;;;;10.16;92.94727;94597.68;;;;
2020/10/06 04:44:57;;;;;;;1.7;0.9;;;;;;;10.16;92.94727;94597.68;;;;
2020/10/06 04:45:59;;;;;;;1.7;0.9;;;;;;;10.16;92.94727;94597.68;;;;
2020/10/06 04:47:09;;;;;;;1.7;0.9;;;;;;;10.16;92.94727;94597.68;;;;
2020/10/06 04:48:11;;;;;;;1.7;0.9;;;;;;;10.16;92.94727;94597.68;;;;
2020/10/06 04:49:17;;;;;;;1.7;0.9;;;;;;;10.16;92.94727;94597.68;;;;
2020/10/06 04:50:17;;;;;;;1.7;0.9;;;;;;;10.16;92.94727;94597.68;;;;
2020/10/06 04:51:19;;;;;;;1.7;0.9;;;;;;;10.16;92.94727;94597.68;;;;
2020/10/06 04:52:20;;;;;;;1.7;0.9;;;;;;;10.16;92.94727;94597.68;;;;
2020/10/06 04:53:23;;;;;;;0.85;0.85;;;;;;;10.21;92.66797;94593.83;;;;
2020/10/06 04:54:23;;;;;;;0.85;0.85;;;;;;;10.21;92.66797;94593.83;;;;
2020/10/06 04:55:24;;;;;;;0.85;0.85;;;;;;;10.21;92.66797;94593.83;;;;
2020/10/06 04:56:25;;;;;;;0.85;0.85;;;;;;;10.21;92.66797;94593.83;;;;
2020/10/06 04:57:30;;;;;;;0.85;0.85;;;;;;;10.21;92.66797;94593.83;;;;
2020/10/06 04:58:31;;;;;;;0.85;0.85;;;;;;;10.21;92.66797;94593.83;;;;
2020/10/06 04:59:40;;;;;;;0.85;0.85;;;;;;;10.21;92.66797;94593.83;;;;
2020/10/06 05:00:40;;;;;;;0.85;0.85;;;;;;;10.21;92.66797;94593.83;;;;
2020/10/06 05:01:49;;;;;;;0.85;0.85;;;;;;;10.21;92.66797;94593.83;;;;
2020/10/06 05:02:51;;;;;;;0.85;0.85;;;;;;;10.21;92.66797;94593.83;;;;
2020/10/06 05:04:04;;;;;;;3.1;1;;;;;;;10.38;92.46191;94611.6;;;;
2020/10/06 05:05:04;;;;;;;3.1;1;;;;;;;10.38;92.46191;94611.6;;;;
2020/10/06 05:06:06;;;;;;;3.1;1;;;;;;;10.38;92.46191;94611.6;;;;
2020/10/06 05:07:07;;;;;;;3.1;1;;;;;;;10.38;92.46191;94611.6;;;;
2020/10/06 05:08:11;;;;;;;3.1;1;;;;;;;10.38;92.46191;94611.6;;;;
2020/10/06 05:09:12;;;;;;;3.1;1;;;;;;;10.38;92.46191;94611.6;;;;
2020/10/06 05:10:19;;;;;;;3.1;1;;;;;;;10.38;92.46191;94611.6;;;;
2020/10/06 05:11:29;;;;;;;3.1;1;;;;;;;10.38;92.46191;94611.6;;;;
2020/10/06 05:12:30;;;;;;;3.1;1;;;;;;;10.38;92.46191;94611.6;;;;
2020/10/06 05:13:30;;;;;;;3.1;1;;;;;;;10.38;92.46191;94611.6;;;;
2020/10/06 05:14:30;;;;;;;1.9;1.1;;;;;;;10.48;91.36426;94613.61;;;;
2020/10/06 05:15:36;;;;;;;1.9;1.1;;;;;;;10.48;91.36426;94613.61;;;;
2020/10/06 05:16:37;;;;;;;1.9;1.1;;;;;;;10.48;91.36426;94613.61;;;;
2020/10/06 05:17:38;;;;;;;1.9;1.1;;;;;;;10.48;91.36426;94613.61;;;;
2020/10/06 05:18:38;;;;;;;1.9;1.1;;;;;;;10.48;91.36426;94613.61;;;;
2020/10/06 05:19:39;;;;;;;1.9;1.1;;;;;;;10.48;91.36426;94613.61;;;;
2020/10/06 05:20:39;;;;;;;1.9;1.1;;;;;;;10.48;91.36426;94613.61;;;;
2020/10/06 05:21:41;;;;;;;1.9;1.1;;;;;;;10.48;91.36426;94613.61;;;;
2020/10/06 05:22:41;;;;;;;1.9;1.1;;;;;;;10.48;91.36426;94613.61;;;;
2020/10/06 05:23:42;;;;;;;1.9;1.1;;;;;;;10.48;91.36426;94613.61;;;;
2020/10/06 05:24:47;;;;;;;1.85;1.1;;;;;;;10.6;90.38867;94633.59;;;;
2020/10/06 05:25:47;;;;;;;1.85;1.1;;;;;;;10.6;90.38867;94633.59;;;;
2020/10/06 05:26:50;;;;;;;1.85;1.1;;;;;;;10.6;90.38867;94633.59;;;;
2020/10/06 05:27:50;;;;;;;1.85;1.1;;;;;;;10.6;90.38867;94633.59;;;;
2020/10/06 05:28:55;;;;;;;1.85;1.1;;;;;;;10.6;90.38867;94633.59;;;;
2020/10/06 05:29:55;;;;;;;1.85;1.1;;;;;;;10.6;90.38867;94633.59;;;;
2020/10/06 05:30:58;;;;;;;1.85;1.1;;;;;;;10.6;90.38867;94633.59;;;;
2020/10/06 05:32:02;;;;;;;1.85;1.1;;;;;;;10.6;90.38867;94633.59;;;;
2020/10/06 05:33:02;;;;;;;1.85;1.1;;;;;;;10.6;90.38867;94633.59;;;;
2020/10/06 05:34:03;;;;;;;1.85;1.1;;;;;;;10.6;90.38867;94633.59;;;;
2020/10/06 05:35:03;;;;;;;1.85;1.1;;;;;;;10.6;90.38867;94633.59;;;;
2020/10/06 05:36:04;;;;;;;2.1;1.2;;;;;;;10.71;89.15332;94638.58;;;;
2020/10/06 05:37:05;;;;;;;2.1;1.2;;;;;;;10.71;89.15332;94638.58;;;;
2020/10/06 05:38:07;;;;;;;2.1;1.2;;;;;;;10.71;89.15332;94638.58;;;;
2020/10/06 05:39:07;;;;;;;2.1;1.2;;;;;;;10.71;89.15332;94638.58;;;;
2020/10/06 05:40:08;;;;;;;2.1;1.2;;;;;;;10.71;89.15332;94638.58;;;;
2020/10/06 05:41:08;;;;;;;2.1;1.2;;;;;;;10.71;89.15332;94638.58;;;;
2020/10/06 05:42:12;;;;;;;2.1;1.2;;;;;;;10.71;89.15332;94638.58;;;;
2020/10/06 05:43:12;;;;;;;2.1;1.2;;;;;;;10.71;89.15332;94638.58;;;;
2020/10/06 05:44:15;;;;;;;2.1;1.2;;;;;;;10.71;89.15332;94638.58;;;;
2020/10/06 05:45:15;;;;;;;2.1;1.2;;;;;;;10.71;89.15332;94638.58;;;;
2020/10/06 05:46:18;;;;;;;2.6;1.3;;;;;;;10.84;88.0625;94633.62;;;;
2020/10/06 05:47:20;;;;;;;2.6;1.3;;;;;;;10.84;88.0625;94633.62;;;;
2020/10/06 05:48:20;;;;;;;2.6;1.3;;;;;;;10.84;88.0625;94633.62;;;;
2020/10/06 05:49:21;;;;;;;2.6;1.3;;;;;;;10.84;88.0625;94633.62;;;;
2020/10/06 05:50:21;;;;;;;2.6;1.3;;;;;;;10.84;88.0625;94633.62;;;;
2020/10/06 05:51:22;;;;;;;2.6;1.3;;;;;;;10.84;88.0625;94633.62;;;;
2020/10/06 05:52:23;;;;;;;2.6;1.3;;;;;;;10.84;88.0625;94633.62;;;;
2020/10/06 05:53:25;;;;;;;2.6;1.3;;;;;;;10.84;88.0625;94633.62;;;;
2020/10/06 05:54:35;;;;;;;2.6;1.3;;;;;;;10.84;88.0625;94633.62;;;;
2020/10/06 05:55:37;;;;;;;2.6;1.3;;;;;;;10.84;88.0625;94633.62;;;;
2020/10/06 05:56:38;;;;;;;3.35;1.2;;;;;;;10.89;87.12207;94648.11;;;;
2020/10/06 05:57:38;;;;;;;3.35;1.2;;;;;;;10.89;87.12207;94648.11;;;;
2020/10/06 05:58:39;;;;;;;3.35;1.2;;;;;;;10.89;87.12207;94648.11;;;;
2020/10/06 05:59:39;;;;;;;3.35;1.2;;;;;;;10.89;87.12207;94648.11;;;;